createdAt,value
2022-12-19T00:02:25.814Z,83.59
2022-12-19T00:04:52.200Z,83.62
2022-12-19T00:07:18.530Z,84.19
2022-12-19T00:09:44.844Z,84.15
2022-12-19T00:12:15.885Z,84.77
2022-12-19T00:14:43.827Z,85.54
2022-12-19T00:17:10.146Z,85.81
2022-12-19T00:19:36.768Z,86.16
2022-12-19T00:22:07.103Z,86.23
2022-12-19T00:24:36.026Z,86.47
2022-12-19T00:27:02.358Z,86.85
2022-12-19T00:29:28.684Z,87.19
2022-12-19T00:31:55.056Z,86.99
2022-12-19T00:34:21.570Z,86.96
2022-12-19T00:36:47.892Z,87.18
2022-12-19T00:39:14.229Z,87.48
2022-12-19T00:41:42.583Z,88.18
2022-12-19T00:44:14.243Z,87.97
2022-12-19T00:46:41.511Z,88.06
2022-12-19T00:49:08.406Z,88.26
2022-12-19T00:51:36.659Z,88.59
2022-12-19T00:54:05.297Z,87.64
2022-12-19T00:56:37.529Z,88.19
2022-12-19T00:59:05.005Z,88.29
2022-12-19T01:01:35.132Z,88.26
2022-12-19T01:06:49.417Z,88.56
2022-12-19T01:09:15.842Z,89.26
2022-12-19T01:11:42.249Z,88.89
2022-12-19T01:14:09.524Z,88.82
2022-12-19T01:16:35.887Z,88.77
2022-12-19T01:19:02.241Z,88.82
2022-12-19T01:21:31.495Z,88.91
2022-12-19T01:23:57.796Z,88.92
2022-12-19T01:26:24.150Z,88.59
2022-12-19T01:28:50.497Z,88.79
2022-12-19T01:31:16.866Z,88.41
2022-12-19T01:33:45.562Z,88.22
2022-12-19T01:36:11.890Z,89.01
2022-12-19T01:38:38.226Z,88.98
2022-12-19T01:41:05.354Z,88.67
2022-12-19T01:43:53.089Z,88.74
2022-12-19T01:46:24.773Z,88.61
2022-12-19T01:48:54.432Z,88.59
2022-12-19T01:51:25.067Z,88.35
2022-12-19T01:53:54.200Z,89.09
2022-12-19T01:56:26.182Z,88.87
2022-12-19T01:59:05.554Z,88.81
2022-12-19T02:01:34.648Z,88.88
2022-12-19T02:04:02.269Z,89.07
2022-12-19T02:06:30.406Z,89.20
2022-12-19T02:08:57.174Z,89.18
2022-12-19T02:11:23.554Z,88.92
2022-12-19T02:13:49.953Z,89.47
2022-12-19T02:16:31.467Z,89.93
2022-12-19T02:19:04.305Z,89.47
2022-12-19T02:21:44.316Z,89.87
2022-12-19T02:24:46.643Z,90.62
2022-12-19T02:27:18.885Z,90.91
2022-12-19T02:30:16.123Z,90.67
2022-12-19T02:32:54.711Z,90.73
2022-12-19T02:35:30.065Z,90.73
2022-12-19T02:38:13.282Z,90.58
2022-12-19T02:40:55.398Z,90.52
2022-12-19T02:43:23.773Z,91.03
2022-12-19T02:45:51.703Z,90.99
2022-12-19T02:48:19.958Z,91.20
2022-12-19T02:50:47.948Z,91.39
2022-12-19T02:53:17.260Z,91.16
2022-12-19T02:56:11.484Z,91.05
2022-12-19T02:59:01.849Z,90.86
2022-12-19T03:01:34.384Z,90.71
2022-12-19T03:04:13.373Z,90.87
2022-12-19T03:07:02.627Z,90.78
2022-12-19T03:09:37.283Z,90.51
2022-12-19T03:12:17.161Z,90.78
2022-12-19T03:14:46.877Z,91.06
2022-12-19T03:17:13.246Z,91.22
2022-12-19T03:19:41.021Z,91.45
2022-12-19T03:22:08.101Z,91.25
2022-12-19T03:24:34.507Z,91.27
2022-12-19T03:27:11.144Z,91.49
2022-12-19T03:29:43.007Z,91.02
2022-12-19T03:32:13.058Z,90.44
2022-12-19T03:34:47.859Z,90.31
2022-12-19T03:37:19.733Z,89.94
2022-12-19T03:39:51.549Z,89.57
2022-12-19T03:42:19.738Z,90.01
2022-12-19T03:44:50.034Z,89.78
2022-12-19T03:47:39.052Z,89.89
2022-12-19T03:50:07.594Z,90.18
2022-12-19T03:52:41.619Z,90.33
2022-12-19T03:55:19.020Z,90.40
2022-12-19T03:57:57.140Z,90.83
2022-12-19T04:00:25.146Z,90.39
2022-12-19T04:02:55.713Z,90.77
2022-12-19T04:05:25.131Z,91.25
2022-12-19T04:07:56.151Z,91.15
2022-12-19T04:10:26.159Z,90.94
2022-12-19T04:13:01.092Z,91.10
2022-12-19T04:16:06.427Z,91.33
2022-12-19T04:18:33.685Z,91.42
2022-12-19T04:21:11.271Z,91.25
2022-12-19T04:23:45.012Z,91.44
2022-12-19T04:26:13.593Z,92.23
2022-12-19T04:28:52.754Z,91.96
2022-12-19T04:31:20.873Z,92.01
2022-12-19T04:33:47.340Z,92.25
2022-12-19T04:36:13.736Z,92.22
2022-12-19T04:38:40.282Z,91.51
2022-12-19T04:41:06.797Z,91.89
2022-12-19T04:43:33.152Z,92.01
2022-12-19T04:45:59.993Z,91.99
2022-12-19T04:48:26.413Z,92.36
2022-12-19T04:50:52.803Z,91.98
2022-12-19T04:53:19.282Z,91.57
2022-12-19T04:55:45.614Z,91.90
2022-12-19T04:58:11.974Z,92.44
2022-12-19T05:00:38.620Z,92.28
2022-12-19T05:03:05.086Z,92.79
2022-12-19T05:05:31.589Z,92.90
2022-12-19T05:07:57.922Z,92.29
2022-12-19T05:10:24.305Z,91.47
2022-12-19T05:12:50.634Z,91.44
2022-12-19T05:15:17.170Z,91.83
2022-12-19T05:17:43.478Z,91.83
2022-12-19T05:20:10.297Z,91.43
2022-12-19T05:22:36.648Z,91.66
2022-12-19T05:25:03.071Z,91.28
2022-12-19T05:27:29.402Z,91.56
2022-12-19T05:29:55.739Z,91.54
2022-12-19T05:32:22.176Z,91.70
2022-12-19T05:34:48.494Z,91.83
2022-12-19T05:37:14.847Z,92.07
2022-12-19T05:39:41.151Z,92.17
2022-12-19T05:42:12.178Z,92.23
2022-12-19T05:44:38.911Z,92.48
2022-12-19T05:47:05.418Z,92.75
2022-12-19T05:49:31.783Z,93.08
2022-12-19T05:51:58.119Z,93.23
2022-12-19T05:54:25.674Z,93.76
2022-12-19T05:56:52.115Z,94.02
2022-12-19T05:59:18.465Z,94.04
2022-12-19T06:01:44.909Z,94.19
2022-12-19T06:04:11.307Z,94.22
2022-12-19T06:06:37.630Z,94.22
2022-12-19T06:09:04.011Z,94.19
2022-12-19T06:11:30.369Z,93.93
2022-12-19T06:13:56.729Z,94.20
2022-12-19T06:16:23.735Z,94.80
2022-12-19T06:18:50.196Z,94.94
2022-12-19T06:21:19.290Z,95.08
2022-12-19T06:23:46.267Z,95.46
2022-12-19T06:26:19.574Z,95.20
2022-12-19T06:28:47.777Z,95.01
2022-12-19T06:31:14.715Z,94.87
2022-12-19T06:33:41.293Z,94.92
2022-12-19T06:36:16.496Z,95.09
2022-12-19T06:38:42.915Z,95.63
2022-12-19T06:41:10.317Z,95.62
2022-12-19T06:43:36.731Z,95.73
2022-12-19T06:46:03.206Z,95.95
2022-12-19T06:48:29.638Z,96.06
2022-12-19T06:50:55.968Z,95.98
2022-12-19T06:53:22.479Z,96.00
2022-12-19T06:55:52.281Z,96.24
2022-12-19T06:58:23.969Z,96.36
2022-12-19T07:00:51.164Z,96.88
2022-12-19T07:03:23.198Z,96.85
2022-12-19T07:05:49.913Z,97.40
2022-12-19T07:08:16.462Z,97.47
2022-12-19T07:10:42.822Z,97.63
2022-12-19T07:13:09.168Z,97.96
2022-12-19T07:15:36.290Z,98.15
2022-12-19T07:18:05.444Z,98.21
2022-12-19T07:20:34.378Z,98.78
2022-12-19T07:23:03.107Z,98.89
2022-12-19T07:25:29.480Z,99.40
2022-12-19T07:27:56.349Z,99.62
2022-12-19T07:30:22.711Z,99.42
2022-12-19T07:32:49.164Z,99.58
2022-12-19T07:35:15.522Z,99.41
2022-12-19T07:37:41.910Z,99.66
2022-12-19T07:40:08.851Z,99.81
2022-12-19T07:42:35.161Z,99.87
2022-12-19T07:45:01.592Z,100.00
2022-12-19T07:47:28.045Z,100.00
2022-12-19T07:49:54.375Z,100.00
2022-12-19T07:52:20.699Z,100.00
2022-12-19T07:54:47.056Z,100.00
2022-12-19T07:57:13.419Z,100.00
2022-12-19T07:59:39.735Z,100.00
2022-12-19T08:02:06.712Z,100.00
2022-12-19T08:04:34.504Z,100.00
2022-12-19T08:07:00.921Z,100.00
2022-12-19T08:09:27.231Z,100.00
2022-12-19T08:11:54.668Z,100.00
2022-12-19T08:14:21.095Z,100.00
2022-12-19T08:17:18.566Z,100.00
2022-12-19T08:19:33.749Z,100.00
2022-12-19T08:22:00.139Z,100.00
2022-12-19T08:24:26.512Z,100.00
2022-12-19T08:26:52.835Z,100.00
2022-12-19T08:29:19.176Z,100.00
2022-12-19T08:31:45.508Z,100.00
2022-12-19T08:34:11.844Z,100.00
2022-12-19T08:36:38.167Z,100.00
2022-12-19T08:39:04.690Z,100.00
2022-12-19T08:41:31.072Z,100.00
2022-12-19T08:43:57.725Z,100.00
2022-12-19T08:46:24.528Z,100.00
2022-12-19T08:48:51.062Z,100.00
2022-12-19T08:51:17.680Z,100.00
2022-12-19T08:53:45.675Z,100.00
2022-12-19T08:56:17.678Z,100.00
2022-12-19T08:58:44.416Z,100.00
2022-12-19T09:01:14.326Z,100.00
2022-12-19T09:04:00.004Z,100.00
2022-12-19T09:06:27.614Z,100.00
2022-12-19T09:08:54.026Z,100.00
2022-12-19T09:11:26.733Z,100.00
2022-12-19T09:13:56.424Z,100.00
2022-12-19T09:16:24.481Z,100.00
2022-12-19T09:18:53.803Z,100.00
2022-12-19T09:21:22.891Z,100.00
2022-12-19T09:23:51.416Z,100.00
2022-12-19T09:26:19.290Z,100.00
2022-12-19T09:28:46.542Z,100.00
2022-12-19T09:31:15.890Z,100.00
2022-12-19T09:33:44.000Z,100.00
2022-12-19T09:36:19.970Z,100.00
2022-12-19T09:38:47.232Z,100.00
2022-12-19T09:41:13.488Z,100.00
2022-12-19T09:43:50.676Z,100.00
2022-12-19T09:46:18.119Z,100.00
2022-12-19T09:48:55.189Z,100.00
2022-12-19T09:51:38.120Z,100.00
2022-12-19T09:54:16.400Z,100.00
2022-12-19T09:56:45.596Z,99.79
2022-12-19T09:59:41.585Z,99.65
2022-12-19T10:02:40.876Z,99.34
2022-12-19T10:06:15.095Z,99.21
2022-12-19T10:08:18.984Z,99.16
2022-12-19T10:12:46.511Z,99.27
2022-12-19T10:14:05.041Z,98.78
2022-12-19T10:17:22.646Z,98.61
2022-12-19T10:20:01.265Z,98.45
2022-12-19T10:22:37.578Z,98.13
2022-12-19T10:25:25.618Z,97.96
2022-12-19T10:28:05.909Z,97.87
2022-12-19T10:30:44.979Z,97.73
2022-12-19T10:33:35.850Z,97.61
2022-12-19T10:36:08.568Z,97.27
2022-12-19T10:38:51.346Z,96.97
2022-12-19T10:41:25.726Z,97.38
2022-12-19T10:43:55.013Z,97.68
2022-12-19T10:46:48.869Z,97.76
2022-12-19T10:49:21.177Z,97.87
2022-12-19T10:52:01.124Z,98.09
2022-12-19T10:54:36.282Z,98.03
2022-12-19T10:57:22.460Z,98.18
2022-12-19T11:00:05.945Z,98.14
2022-12-19T11:02:47.961Z,97.94
2022-12-19T11:05:23.363Z,97.49
2022-12-19T11:08:01.912Z,96.98
2022-12-19T11:13:01.009Z,96.12
2022-12-19T11:18:56.494Z,95.77
2022-12-19T11:20:47.855Z,95.74
2022-12-19T11:29:18.755Z,95.94
2022-12-19T11:29:30.007Z,95.83
2022-12-19T11:30:42.815Z,96.15
2022-12-19T11:30:43.935Z,96.79
2022-12-19T11:32:31.872Z,97.57
2022-12-19T11:34:19.144Z,97.40
2022-12-19T11:37:11.921Z,97.43
2022-12-19T11:39:53.833Z,97.61
2022-12-19T11:42:26.175Z,97.17
2022-12-19T11:45:11.717Z,96.68
2022-12-19T11:47:44.668Z,96.41
2022-12-19T11:50:34.892Z,95.84
2022-12-19T11:53:19.219Z,96.10
2022-12-19T11:55:51.506Z,95.81
2022-12-19T11:58:17.857Z,95.76
2022-12-19T12:00:53.847Z,96.28
2022-12-19T12:03:49.523Z,96.47
2022-12-19T12:06:33.258Z,96.04
2022-12-19T12:11:40.006Z,96.21
2022-12-19T12:20:08.977Z,96.79
2022-12-19T12:28:38.046Z,97.29
2022-12-19T12:31:05.780Z,97.66
2022-12-19T12:31:22.780Z,97.46
2022-12-19T12:31:48.870Z,97.43
2022-12-19T12:32:05.784Z,96.97
2022-12-19T12:35:38.052Z,96.83
2022-12-19T12:38:18.740Z,96.67
2022-12-19T12:40:58.853Z,96.21
2022-12-19T12:43:37.063Z,95.87
2022-12-19T12:46:04.940Z,95.90
2022-12-19T12:48:42.580Z,95.65
2022-12-19T12:51:10.313Z,96.05
2022-12-19T12:53:40.622Z,95.62
2022-12-19T12:56:10.196Z,95.52
2022-12-19T12:58:46.591Z,95.43
2022-12-19T13:01:20.148Z,96.45
2022-12-19T13:04:04.517Z,96.50
2022-12-19T13:06:35.342Z,96.26
2022-12-19T13:09:20.043Z,96.15
2022-12-19T13:11:55.144Z,95.97
2022-12-19T13:14:36.792Z,95.83
2022-12-19T13:17:05.315Z,95.51
2022-12-19T13:19:34.057Z,95.67
2022-12-19T13:22:03.447Z,95.97
2022-12-19T13:24:40.242Z,96.00
2022-12-19T13:27:18.777Z,96.47
2022-12-19T13:30:00.410Z,97.14
2022-12-19T13:32:31.928Z,97.86
2022-12-19T13:35:13.495Z,97.84
2022-12-19T13:40:01.457Z,97.75
2022-12-19T13:41:30.173Z,97.80
2022-12-19T13:43:59.778Z,97.79
2022-12-19T13:46:41.222Z,97.81
2022-12-19T13:49:29.655Z,97.62
2022-12-19T13:52:00.808Z,97.51
2022-12-19T13:54:36.301Z,97.61
2022-12-19T13:57:09.288Z,97.59
2022-12-19T13:59:38.811Z,97.31
2022-12-19T14:02:17.843Z,96.35
2022-12-19T14:04:45.409Z,95.64
2022-12-19T14:07:41.071Z,94.76
2022-12-19T14:11:34.975Z,95.61
2022-12-19T14:14:01.509Z,96.29
2022-12-19T14:15:52.340Z,95.89
2022-12-19T14:18:42.489Z,95.41
2022-12-19T14:22:05.620Z,95.62
2022-12-19T14:24:15.926Z,95.63
2022-12-19T14:28:23.599Z,95.30
2022-12-19T14:30:19.436Z,95.18
2022-12-19T14:33:40.835Z,94.90
2022-12-19T14:36:10.977Z,95.20
2022-12-19T14:39:21.131Z,95.53
2022-12-19T14:41:07.929Z,95.74
2022-12-19T14:44:00.310Z,95.71
2022-12-19T14:51:42.361Z,95.62
2022-12-19T14:54:07.106Z,95.23
2022-12-19T14:54:24.628Z,95.08
2022-12-19T14:56:04.139Z,95.46
2022-12-19T14:58:55.865Z,96.15
2022-12-19T15:01:10.131Z,95.75
2022-12-19T15:03:46.368Z,95.99
2022-12-19T15:07:06.620Z,96.53
2022-12-19T15:11:02.548Z,95.56
2022-12-19T15:14:49.362Z,95.67
2022-12-19T15:15:18.526Z,96.07
2022-12-19T15:17:48.059Z,96.06
2022-12-19T15:20:14.899Z,96.09
2022-12-19T15:22:41.352Z,95.91
2022-12-19T15:25:35.809Z,95.68
2022-12-19T15:28:02.001Z,96.06
2022-12-19T15:30:32.794Z,96.08
2022-12-19T15:32:59.126Z,95.53
2022-12-19T15:35:25.472Z,95.46
2022-12-19T15:37:51.815Z,95.25
2022-12-19T15:40:18.663Z,95.05
2022-12-19T15:42:52.108Z,94.77
2022-12-19T15:45:18.525Z,94.68
2022-12-19T15:47:45.397Z,94.18
2022-12-19T15:50:30.031Z,94.26
2022-12-19T15:52:58.675Z,94.59
2022-12-19T15:55:29.052Z,94.44
2022-12-19T15:57:58.720Z,94.30
2022-12-19T16:00:28.525Z,93.56
2022-12-19T16:05:42.114Z,94.16
2022-12-19T16:08:13.359Z,94.11
2022-12-19T16:10:41.592Z,94.59
2022-12-19T16:13:18.376Z,94.47
2022-12-19T16:15:44.837Z,94.49
2022-12-19T16:18:13.213Z,94.28
2022-12-19T16:20:41.172Z,94.53
2022-12-19T16:23:09.516Z,94.15
2022-12-19T16:25:44.461Z,94.21
2022-12-19T16:28:39.169Z,94.58
2022-12-19T16:31:16.193Z,94.70
2022-12-19T16:33:42.612Z,94.37
2022-12-19T16:36:09.576Z,94.25
2022-12-19T16:38:36.178Z,94.21
2022-12-19T16:41:02.832Z,94.50
2022-12-19T16:43:36.912Z,94.50
2022-12-19T16:46:06.551Z,94.39
2022-12-19T16:48:33.060Z,94.02
2022-12-19T16:50:59.497Z,93.96
2022-12-19T16:53:26.113Z,92.52
2022-12-19T16:55:54.169Z,92.48
2022-12-19T16:58:23.152Z,91.64
2022-12-19T17:00:51.254Z,91.83
2022-12-19T17:03:40.027Z,91.99
2022-12-19T17:06:06.949Z,93.22
2022-12-19T17:08:33.362Z,93.68
2022-12-19T17:10:59.725Z,91.56
2022-12-19T17:13:26.446Z,90.25
2022-12-19T17:15:56.646Z,90.48
2022-12-19T17:18:42.443Z,89.93
2022-12-19T17:21:17.737Z,90.45
2022-12-19T17:23:44.263Z,90.63
2022-12-19T17:26:15.874Z,91.03
2022-12-19T17:28:44.205Z,91.93
2022-12-19T17:31:24.029Z,91.40
2022-12-19T17:33:50.620Z,90.53
2022-12-19T17:36:23.054Z,89.44
2022-12-19T17:38:51.377Z,89.25
2022-12-19T17:41:17.720Z,89.25
2022-12-19T17:43:44.178Z,89.72
2022-12-19T17:46:19.398Z,90.27
2022-12-19T17:48:48.269Z,90.33
2022-12-19T17:51:14.629Z,89.68
2022-12-19T17:53:40.960Z,90.03
2022-12-19T17:56:15.117Z,90.14
2022-12-19T17:58:41.561Z,90.31
2022-12-19T18:01:19.335Z,90.16
2022-12-19T18:03:46.974Z,90.86
2022-12-19T18:06:13.360Z,91.15
2022-12-19T18:08:39.983Z,91.09
2022-12-19T18:11:17.296Z,91.58
2022-12-19T18:13:43.672Z,91.62
2022-12-19T18:16:12.288Z,91.67
2022-12-19T18:18:39.137Z,91.62
2022-12-19T18:21:05.717Z,90.95
2022-12-19T18:23:32.672Z,91.18
2022-12-19T18:26:01.921Z,91.45
2022-12-19T18:28:29.586Z,91.99
2022-12-19T18:31:02.359Z,91.56
2022-12-19T18:33:36.661Z,91.10
2022-12-19T18:36:04.720Z,90.90
2022-12-19T18:38:31.053Z,91.21
2022-12-19T18:40:57.385Z,91.84
2022-12-19T18:43:23.759Z,91.99
2022-12-19T18:45:53.596Z,91.95
2022-12-19T18:48:26.075Z,91.94
2022-12-19T18:50:54.048Z,91.42
2022-12-19T18:53:21.809Z,90.50
2022-12-19T18:55:48.767Z,90.74
2022-12-19T18:58:15.131Z,91.21
2022-12-19T19:00:41.945Z,91.04
2022-12-19T19:03:14.515Z,90.39
2022-12-19T19:05:41.772Z,90.51
2022-12-19T19:08:21.942Z,91.08
2022-12-19T19:10:50.402Z,90.90
2022-12-19T19:13:18.320Z,90.30
2022-12-19T19:16:13.143Z,89.29
2022-12-19T19:18:41.196Z,89.81
2022-12-19T19:21:10.986Z,90.04
2022-12-19T19:23:41.670Z,90.65
2022-12-19T19:26:08.022Z,91.45
2022-12-19T19:28:34.393Z,91.55
2022-12-19T19:31:01.327Z,90.96
2022-12-19T19:33:35.648Z,91.06
2022-12-19T19:36:11.955Z,90.69
2022-12-19T19:38:41.888Z,90.56
2022-12-19T19:41:08.239Z,90.39
2022-12-19T19:43:35.462Z,90.39
2022-12-19T19:46:02.375Z,90.47
2022-12-19T19:48:28.854Z,90.16
2022-12-19T19:50:55.166Z,89.37
2022-12-19T19:53:21.501Z,88.55
2022-12-19T19:55:57.825Z,88.64
2022-12-19T19:58:24.223Z,88.61
2022-12-19T20:00:50.573Z,89.17
2022-12-19T20:03:22.579Z,89.05
2022-12-19T20:05:50.236Z,88.76
2022-12-19T20:08:16.675Z,88.64
2022-12-19T20:10:43.070Z,88.88
2022-12-19T20:13:09.460Z,89.25
2022-12-19T20:15:35.816Z,89.11
2022-12-19T20:18:02.608Z,89.07
2022-12-19T20:20:28.931Z,88.85
2022-12-19T20:22:55.272Z,88.92
2022-12-19T20:25:21.661Z,88.46
2022-12-19T20:27:48.029Z,88.14
2022-12-19T20:30:14.541Z,89.04
2022-12-19T20:32:40.913Z,89.37
2022-12-19T20:35:13.976Z,89.12
2022-12-19T20:37:41.033Z,87.94
2022-12-19T20:40:08.607Z,87.66
2022-12-19T20:42:34.977Z,87.91
2022-12-19T20:45:01.367Z,88.13
2022-12-19T20:47:28.057Z,87.65
2022-12-19T20:49:54.371Z,87.90
2022-12-19T20:52:20.702Z,88.60
2022-12-19T20:54:47.005Z,88.92
2022-12-19T20:57:13.365Z,88.92
2022-12-19T20:59:39.717Z,89.31
2022-12-19T21:02:06.577Z,89.38
2022-12-19T21:04:33.340Z,89.30
2022-12-19T21:06:59.831Z,88.17
2022-12-19T21:09:26.261Z,88.26
2022-12-19T21:11:52.637Z,88.48
2022-12-19T21:14:19.037Z,88.19
2022-12-19T21:16:45.509Z,87.95
2022-12-19T21:19:11.872Z,87.63
2022-12-19T21:21:38.243Z,88.10
2022-12-19T21:24:04.863Z,88.06
2022-12-19T21:26:31.188Z,88.50
2022-12-19T21:28:57.587Z,88.41
2022-12-19T21:31:27.360Z,88.71
2022-12-19T21:33:55.752Z,89.30
2022-12-19T21:36:23.290Z,89.92
2022-12-19T21:38:53.031Z,90.34
2022-12-19T21:41:19.799Z,91.22
2022-12-19T21:43:47.544Z,90.29
2022-12-19T21:46:15.646Z,90.61
2022-12-19T21:48:45.258Z,90.49
2022-12-19T21:51:12.663Z,90.78
2022-12-19T21:53:39.457Z,90.82
2022-12-19T21:56:27.492Z,91.08
2022-12-19T21:58:57.862Z,91.05
2022-12-19T22:01:24.927Z,90.46
2022-12-19T22:03:52.216Z,90.45
2022-12-19T22:06:27.793Z,90.47
2022-12-19T22:08:55.425Z,90.39
2022-12-19T22:11:22.298Z,90.21
2022-12-19T22:13:49.287Z,90.31
2022-12-19T22:16:16.919Z,90.67
2022-12-19T22:18:43.509Z,90.74
2022-12-19T22:21:14.951Z,90.20
2022-12-19T22:23:42.207Z,89.66
2022-12-19T22:26:12.374Z,89.89
2022-12-19T22:28:40.654Z,90.37
2022-12-19T22:31:19.685Z,90.25
2022-12-19T22:33:47.259Z,90.59
2022-12-19T22:36:15.504Z,91.37
2022-12-19T22:38:44.008Z,91.63
2022-12-19T22:41:11.231Z,91.59
2022-12-19T22:43:38.976Z,91.55
2022-12-19T22:46:14.295Z,91.69
2022-12-19T22:48:40.683Z,91.46
2022-12-19T22:51:07.554Z,91.24
2022-12-19T22:53:35.354Z,91.33
2022-12-19T22:56:22.948Z,91.58
2022-12-19T22:58:52.004Z,91.40
2022-12-19T23:01:19.790Z,91.19
2022-12-19T23:03:47.746Z,90.82
2022-12-19T23:06:14.902Z,90.81
2022-12-19T23:08:41.372Z,91.29
2022-12-19T23:11:14.716Z,91.70
2022-12-19T23:13:41.596Z,91.18
2022-12-19T23:16:09.092Z,90.84
2022-12-19T23:18:35.731Z,90.99
2022-12-19T23:21:23.159Z,91.58
2022-12-19T23:23:51.955Z,91.24
2022-12-19T23:26:31.311Z,91.47
2022-12-19T23:29:00.077Z,91.91
2022-12-19T23:31:27.832Z,91.89
2022-12-19T23:33:54.872Z,92.17
2022-12-19T23:36:45.104Z,92.42
2022-12-19T23:39:07.914Z,92.52
2022-12-19T23:41:34.243Z,92.58
2022-12-19T23:44:00.706Z,92.56
2022-12-19T23:46:27.910Z,92.80
2022-12-19T23:48:55.015Z,92.91
2022-12-19T23:51:24.341Z,93.05
2022-12-19T23:53:51.752Z,93.71
2022-12-19T23:56:23.947Z,94.15
2022-12-19T23:58:50.330Z,94.94
